Terminal Aerodrome Forecast
Issued by NWS Louisville, KY

Home | Current Version | Previous Version | Text Only | Print | Product List | Glossary On
Versions: 1 2 3 4 5 6 7 8 9 10 11 12 13 14 15 16 17 18 19
000
FTUS43 KLMK 250541
TAFSDF
TAF
KSDF 250541Z 2506/2612 16007KT P6SM FEW060 BKN200
     FM250700 16008KT P6SM FEW050 BKN180 WS020/19045KT
     FM251300 18016G28KT P6SM SCT040 BKN150
     FM251700 17015G26KT P6SM BKN050
     FM252200 17012G23KT P6SM VCSH BKN040
     FM260300 15007KT 4SM -SHRA VCTS BKN030CB=

USA.gov is the U.S. government's official web portal to all federal, state and local government web resources and services.